Time;durP1;ratioP1;P1;durP2;ratioP2;P2;SDS_P1;SDS_P2;PMS_P1;PMS_P2;Temp;Humidity;BMP_temperature;BMP_pressure;BME280_temperature;BME280_humidity;BME280_pressure;Samples;Min_cycle;Max_cycle;Signal;HPM_P1;HPM_P2
2023/07/21 00:00:30;;;;;;;5.32;2.88;;;;;;;23.04;46.92;99432.16;6096252;23;20022;-84
2023/07/21 00:02:57;;;;;;;3.25;2.72;;;;;;;22.99;47.02;99437.44;6096918;23;20512;-85
2023/07/21 00:05:24;;;;;;;6.13;2.85;;;;;;;22.99;46.83;99432.00;6122589;23;20072;-84
2023/07/21 00:07:51;;;;;;;3.92;2.58;;;;;;;22.95;46.79;99428.09;6072978;23;20024;-84
2023/07/21 00:10:18;;;;;;;6.47;2.83;;;;;;;22.93;47.00;99425.59;6072915;23;20706;-85
2023/07/21 00:12:48;;;;;;;5.72;2.83;;;;;;;22.91;47.16;99429.59;6073239;23;20021;-85
2023/07/21 00:15:17;;;;;;;3.50;2.50;;;;;;;22.88;47.20;99425.44;6121875;23;20025;-84
2023/07/21 00:17:47;;;;;;;3.58;2.50;;;;;;;22.83;47.45;99430.72;6096976;23;20021;-85
2023/07/21 00:20:25;;;;;;;4.15;2.50;;;;;;;22.81;47.40;99424.69;6097972;23;20446;-84
2023/07/21 00:22:52;;;;;;;3.60;3.00;;;;;;;22.76;47.73;99425.38;6074575;23;20033;-84
2023/07/21 00:25:19;;;;;;;5.25;2.85;;;;;;;22.73;47.78;99423.13;6097404;23;20085;-85
2023/07/21 00:27:46;;;;;;;4.25;2.80;;;;;;;22.70;47.81;99425.47;6121666;23;20081;-84
2023/07/21 00:30:13;;;;;;;3.53;2.88;;;;;;;22.66;47.86;99418.81;6073223;23;20028;-85
2023/07/21 00:32:41;;;;;;;8.05;3.53;;;;;;;22.63;47.79;99409.28;6097218;23;20021;-85
2023/07/21 00:35:09;;;;;;;3.75;3.20;;;;;;;22.62;47.85;99417.63;6096627;23;20036;-85
2023/07/21 00:37:37;;;;;;;5.20;3.15;;;;;;;22.62;47.87;99421.16;6096764;23;20021;-85
2023/07/21 00:40:09;;;;;;;3.15;2.85;;;;;;;22.60;47.68;99409.72;6097172;23;20515;-84
2023/07/21 00:42:36;;;;;;;5.75;4.45;;;;;;;22.58;47.65;99409.13;6120879;23;20451;-85
2023/07/21 00:45:03;;;;;;;5.70;2.60;;;;;;;22.56;47.60;99410.41;6073062;23;20057;-85
2023/07/21 00:47:34;;;;;;;6.90;2.70;;;;;;;22.49;47.82;99416.72;6073038;23;20425;-85
2023/07/21 00:50:01;;;;;;;5.13;2.95;;;;;;;22.46;48.05;99409.03;6073477;23;20021;-84
2023/07/21 00:52:28;;;;;;;3.35;2.80;;;;;;;22.46;47.86;99406.31;6071353;23;20337;-85
2023/07/21 00:54:55;;;;;;;7.50;2.95;;;;;;;22.44;48.19;99404.88;6072196;23;20093;-85
2023/07/21 00:57:21;;;;;;;8.60;3.20;;;;;;;22.39;48.44;99412.84;6072757;23;20041;-85
2023/07/21 00:59:49;;;;;;;3.30;2.95;;;;;;;22.36;49.10;99406.00;6095560;23;20843;-85
2023/07/21 01:02:17;;;;;;;4.78;3.13;;;;;;;22.31;49.40;99404.00;6096760;23;20482;-84
2023/07/21 01:04:45;;;;;;;8.60;3.15;;;;;;;22.30;49.44;99406.91;6096704;23;20446;-84
2023/07/21 01:07:13;;;;;;;4.35;3.05;;;;;;;22.28;49.42;99404.41;6072447;23;20026;-85
2023/07/21 01:09:40;;;;;;;4.00;3.08;;;;;;;22.28;49.21;99399.00;6096017;23;20092;-85
2023/07/21 01:12:08;;;;;;;5.43;3.05;;;;;;;22.24;49.51;99400.53;6072306;23;20072;-84
2023/07/21 01:14:36;;;;;;;5.47;3.50;;;;;;;22.20;49.65;99393.06;6072449;23;20438;-85
2023/07/21 01:17:04;;;;;;;4.95;3.25;;;;;;;22.17;50.07;99388.09;6096219;23;20533;-85
2023/07/21 01:19:31;;;;;;;7.68;3.25;;;;;;;22.14;50.18;99394.75;6097044;23;20191;-84
2023/07/21 01:22:03;;;;;;;3.72;3.20;;;;;;;22.07;50.51;99384.00;6096463;23;20026;-85
2023/07/21 01:24:50;;;;;;;4.50;3.07;;;;;;;21.95;50.80;99393.03;6071884;23;20656;-84
2023/07/21 01:27:20;;;;;;;4.60;3.00;;;;;;;22.06;50.19;99387.75;6110842;23;20440;-85
2023/07/21 01:29:48;;;;;;;3.67;3.15;;;;;;;22.07;50.18;99377.75;6073000;23;20418;-85
2023/07/21 01:32:17;;;;;;;4.00;3.08;;;;;;;22.05;50.31;99377.97;6096026;23;20323;-85
2023/07/21 01:34:44;;;;;;;4.88;3.35;;;;;;;22.05;51.20;99383.38;6095673;23;20037;-85
2023/07/21 01:37:12;;;;;;;3.40;2.80;;;;;;;22.03;51.92;99377.41;6121070;23;20382;-85
2023/07/21 01:39:39;;;;;;;6.88;3.35;;;;;;;21.99;52.16;99376.16;6096600;23;20029;-85
2023/07/21 01:42:06;;;;;;;5.93;3.60;;;;;;;21.99;51.94;99378.06;6096222;23;20029;-85
2023/07/21 01:44:33;;;;;;;3.55;3.15;;;;;;;21.97;51.99;99374.72;6096289;23;20076;-85
2023/07/21 01:47:00;;;;;;;6.63;3.55;;;;;;;21.95;52.26;99377.66;6072371;23;20025;-85
2023/07/21 01:49:27;;;;;;;5.07;3.35;;;;;;;21.93;51.76;99381.63;6095987;23;20033;-84
2023/07/21 01:51:57;;;;;;;4.82;3.15;;;;;;;21.92;51.48;99385.38;6096264;23;20041;-85
2023/07/21 01:54:43;;;;;;;3.90;3.42;;;;;;;21.86;51.53;99379.81;6095969;23;20045;-85
2023/07/21 01:57:12;;;;;;;4.57;3.50;;;;;;;21.86;52.15;99377.09;6095652;23;20063;-85
2023/07/21 01:59:41;;;;;;;4.30;3.38;;;;;;;21.87;52.06;99373.34;6072014;23;20052;-85
2023/07/21 02:02:09;;;;;;;5.72;3.10;;;;;;;21.83;52.16;99376.69;6071581;23;20017;-85
2023/07/21 02:04:38;;;;;;;4.15;3.30;;;;;;;21.81;51.99;99365.31;6096075;23;20026;-84
2023/07/21 02:07:05;;;;;;;7.13;3.58;;;;;;;21.79;51.73;99372.81;6072302;23;20112;-85
2023/07/21 02:09:32;;;;;;;6.93;3.25;;;;;;;21.76;51.73;99365.97;6095618;23;20021;-85
2023/07/21 02:11:59;;;;;;;8.20;3.70;;;;;;;21.74;51.81;99368.06;6048955;23;20025;-84
2023/07/21 02:14:55;;;;;;;5.60;3.00;;;;;;;21.73;51.96;99369.13;6073777;23;20029;-85
2023/07/21 02:17:22;;;;;;;3.85;3.10;;;;;;;21.73;52.54;99361.00;6070989;23;20044;-86
2023/07/21 02:19:48;;;;;;;5.97;3.95;;;;;;;21.71;52.79;99363.09;6096463;23;20089;-85
2023/07/21 02:22:15;;;;;;;7.28;3.97;;;;;;;21.67;53.11;99362.69;6095624;23;20056;-85
2023/07/21 02:24:42;;;;;;;5.05;3.50;;;;;;;21.67;53.60;99365.38;6071492;23;20041;-85
2023/07/21 02:27:09;;;;;;;5.97;3.72;;;;;;;21.66;53.46;99362.94;6120102;23;20096;-85
2023/07/21 02:29:36;;;;;;;4.80;3.72;;;;;;;21.66;53.63;99358.34;6096307;23;20033;-85
2023/07/21 02:32:03;;;;;;;4.47;3.25;;;;;;;21.66;53.90;99365.63;6095213;23;20013;-84
2023/07/21 02:34:30;;;;;;;3.63;3.33;;;;;;;21.66;53.89;99362.94;6119146;23;20335;-85
2023/07/21 02:36:57;;;;;;;5.00;3.42;;;;;;;21.61;54.07;99363.56;6095655;23;20109;-85
2023/07/21 02:39:25;;;;;;;4.85;3.40;;;;;;;21.61;54.27;99368.16;6095216;23;20013;-84
2023/07/21 02:41:52;;;;;;;5.47;3.65;;;;;;;21.60;54.08;99353.81;6095464;23;20044;-85
2023/07/21 02:44:19;;;;;;;5.10;3.83;;;;;;;21.61;54.25;99360.88;6071460;23;20025;-84
2023/07/21 02:46:46;;;;;;;6.30;3.63;;;;;;;21.60;54.26;99361.09;6096082;23;20044;-85
2023/07/21 02:49:13;;;;;;;5.78;3.15;;;;;;;21.58;53.99;99353.22;6095106;23;20025;-84
2023/07/21 02:51:39;;;;;;;6.30;3.42;;;;;;;21.56;53.36;99344.50;6071247;23;20511;-85
2023/07/21 02:54:06;;;;;;;5.35;3.50;;;;;;;21.56;53.63;99349.91;6071834;23;20048;-85
2023/07/21 02:56:34;;;;;;;5.78;3.92;;;;;;;21.56;53.08;99351.78;6071200;23;20528;-84
2023/07/21 02:59:10;;;;;;;5.03;3.63;;;;;;;21.56;53.74;99357.19;6074992;23;20029;-85
2023/07/21 03:01:38;;;;;;;5.57;3.75;;;;;;;21.55;53.35;99348.25;6071279;23;20072;-84
2023/07/21 03:04:06;;;;;;;7.72;3.67;;;;;;;21.55;53.18;99350.09;6094534;23;20033;-84
2023/07/21 03:06:42;;;;;;;4.70;3.67;;;;;;;21.54;53.24;99351.16;6072211;23;20021;-85
2023/07/21 03:09:09;;;;;;;4.60;3.55;;;;;;;21.55;53.16;99355.50;6096347;23;20049;-84
2023/07/21 03:11:38;;;;;;;6.63;4.15;;;;;;;21.56;53.66;99355.31;6095131;23;20038;-85
2023/07/21 03:14:23;;;;;;;4.55;4.03;;;;;;;21.52;54.14;99362.19;6118359;23;20334;-86
2023/07/21 03:16:50;;;;;;;5.55;3.83;;;;;;;21.51;54.47;99359.72;6096643;23;20025;-84
2023/07/21 03:19:18;;;;;;;4.53;3.90;;;;;;;21.51;54.41;99362.41;6097511;23;20325;-85
2023/07/21 03:21:45;;;;;;;6.70;4.85;;;;;;;21.49;55.00;99349.13;6071971;23;20080;-85
2023/07/21 03:24:14;;;;;;;9.00;3.72;;;;;;;21.45;54.73;99353.31;6121060;23;20025;-84
2023/07/21 03:26:40;;;;;;;4.57;3.72;;;;;;;21.42;55.12;99351.88;6095163;23;20056;-85
2023/07/21 03:29:07;;;;;;;5.05;4.05;;;;;;;21.41;54.89;99350.19;6121199;23;20084;-83
2023/07/21 03:31:37;;;;;;;3.85;3.38;;;;;;;21.41;54.98;99352.09;6074619;23;20068;-88
2023/07/21 03:34:09;;;;;;;4.43;4.00;;;;;;;21.39;55.13;99355.00;6074446;23;20025;-88
2023/07/21 03:36:37;;;;;;;6.30;4.38;;;;;;;21.38;55.28;99344.41;6073811;23;20027;-87
2023/07/21 03:39:04;;;;;;;4.22;3.80;;;;;;;21.37;55.01;99346.28;6070384;23;20025;-87
2023/07/21 03:41:31;;;;;;;6.30;3.85;;;;;;;21.39;55.11;99346.88;6097502;23;20149;-87
2023/07/21 03:43:58;;;;;;;5.80;4.10;;;;;;;21.40;54.87;99332.34;6072322;23;20446;-88
2023/07/21 03:46:26;;;;;;;7.55;3.92;;;;;;;21.39;55.00;99333.38;6074331;23;20018;-89
2023/07/21 03:48:53;;;;;;;8.30;4.05;;;;;;;21.39;54.79;99338.78;6097659;23;20477;-88
2023/07/21 03:51:20;;;;;;;4.63;3.95;;;;;;;21.38;54.38;99339.00;6095206;23;20022;-88
2023/07/21 03:53:47;;;;;;;6.00;4.60;;;;;;;21.32;54.04;99329.91;6049652;23;20657;-88
2023/07/21 03:56:19;;;;;;;7.35;3.92;;;;;;;21.36;54.18;99335.69;6051803;23;20092;-88
2023/07/21 03:58:45;;;;;;;6.00;3.92;;;;;;;21.34;54.58;99335.88;6073169;23;20036;-88
2023/07/21 04:01:12;;;;;;;6.03;4.72;;;;;;;21.36;54.37;99349.19;6096407;23;20025;-88
2023/07/21 04:03:39;;;;;;;5.93;4.07;;;;;;;21.34;54.08;99345.88;6097810;23;20025;-88
2023/07/21 04:06:10;;;;;;;9.57;4.45;;;;;;;21.28;53.69;99336.75;6121004;23;20065;-88
2023/07/21 04:08:38;;;;;;;5.50;4.50;;;;;;;21.32;53.73;99345.25;6097264;23;20025;-88
2023/07/21 04:11:05;;;;;;;6.40;4.30;;;;;;;21.30;53.69;99347.38;6096582;23;20029;-89
2023/07/21 04:13:32;;;;;;;5.57;3.80;;;;;;;21.28;54.05;99347.56;6097484;23;20022;-88
2023/07/21 04:15:59;;;;;;;7.35;4.03;;;;;;;21.29;54.56;99343.00;6092799;23;20021;-89
2023/07/21 04:18:27;;;;;;;6.80;3.83;;;;;;;21.29;54.46;99349.22;6072739;23;20021;-88
2023/07/21 04:20:53;;;;;;;7.38;4.53;;;;;;;21.29;54.67;99341.09;6073394;23;20049;-88
2023/07/21 04:23:20;;;;;;;7.78;4.70;;;;;;;21.27;54.93;99337.81;6073138;23;20045;-89
2023/07/21 04:25:48;;;;;;;5.40;4.10;;;;;;;21.33;54.94;99347.75;6072029;23;20021;-88
2023/07/21 04:28:16;;;;;;;9.23;4.57;;;;;;;21.32;55.09;99343.41;6096690;23;20044;-89
2023/07/21 04:30:43;;;;;;;5.90;3.85;;;;;;;21.30;55.31;99342.78;6073503;23;20018;-88
2023/07/21 04:33:10;;;;;;;7.28;4.38;;;;;;;21.31;55.05;99340.91;6094274;23;20076;-87
2023/07/21 04:35:43;;;;;;;3.97;3.58;;;;;;;21.25;55.59;99342.59;6096003;23;20080;-87
2023/07/21 04:38:12;;;;;;;5.03;3.83;;;;;;;21.30;55.48;99344.66;6072374;23;20041;-88
2023/07/21 04:40:45;;;;;;;6.82;3.55;;;;;;;21.29;55.43;99337.59;6095108;23;20499;-87
2023/07/21 04:43:13;;;;;;;4.88;4.10;;;;;;;21.31;55.12;99341.72;6092950;23;20021;-87
2023/07/21 04:45:41;;;;;;;12.77;3.92;;;;;;;21.31;55.06;99335.50;6095339;23;20030;-88
2023/07/21 04:48:14;;;;;;;5.53;4.15;;;;;;;21.30;55.39;99336.56;6096948;23;20025;-87
2023/07/21 04:50:43;;;;;;;8.05;4.90;;;;;;;21.28;55.40;99339.47;6071850;23;20025;-88
2023/07/21 04:53:10;;;;;;;8.40;4.32;;;;;;;21.27;55.22;99337.81;6071258;23;20101;-87
2023/07/21 04:55:38;;;;;;;7.13;3.95;;;;;;;21.28;55.20;99344.88;6048594;23;20442;-87
2023/07/21 04:58:08;;;;;;;4.78;4.30;;;;;;;21.30;54.87;99340.09;6071569;23;20030;-88
2023/07/21 05:00:35;;;;;;;6.43;4.03;;;;;;;21.32;54.70;99347.94;6095277;23;20072;-87
2023/07/21 05:03:02;;;;;;;5.03;4.18;;;;;;;21.34;54.58;99338.59;6094906;23;20022;-87
2023/07/21 05:05:29;;;;;;;9.35;4.45;;;;;;;21.36;54.46;99350.00;6095726;23;20022;-87
2023/07/21 05:08:00;;;;;;;8.32;4.72;;;;;;;21.33;54.32;99338.81;6071931;23;20092;-88
2023/07/21 05:10:27;;;;;;;8.60;4.80;;;;;;;21.34;53.96;99346.69;6095447;23;20032;-87
2023/07/21 05:12:55;;;;;;;8.05;5.20;;;;;;;21.32;53.59;99343.41;6095175;23;20026;-87
2023/07/21 05:15:35;;;;;;;8.70;5.35;;;;;;;21.32;53.80;99345.25;6096580;23;20077;-87
2023/07/21 05:18:16;;;;;;;12.77;4.93;;;;;;;21.29;53.96;99351.91;6077639;23;20100;-87
2023/07/21 05:21:03;;;;;;;9.57;5.45;;;;;;;21.31;54.22;99352.53;6022100;23;20017;-87
2023/07/21 05:24:00;;;;;;;5.55;4.38;;;;;;;21.29;54.42;99354.59;6089163;23;20737;-88
2023/07/21 05:26:28;;;;;;;7.10;4.63;;;;;;;21.31;54.14;99357.94;6095232;23;20029;-87
2023/07/21 05:28:55;;;;;;;11.73;4.68;;;;;;;21.31;53.92;99359.81;6096967;23;20013;-87
2023/07/21 05:31:37;;;;;;;12.63;6.05;;;;;;;21.29;53.68;99362.72;6094417;23;20025;-87
2023/07/21 05:34:16;;;;;;;7.78;4.72;;;;;;;21.29;53.95;99364.59;6076059;23;20518;-87
2023/07/21 05:36:44;;;;;;;7.85;5.03;;;;;;;21.29;54.00;99351.09;6071666;23;20029;-88
2023/07/21 05:39:11;;;;;;;8.38;4.72;;;;;;;21.29;53.88;99360.00;6070735;23;20028;-88
2023/07/21 05:41:38;;;;;;;8.07;4.72;;;;;;;21.29;54.35;99360.00;6095925;23;20020;-87
2023/07/21 05:44:05;;;;;;;5.88;4.40;;;;;;;21.30;54.15;99348.19;6070459;23;20033;-87
2023/07/21 05:46:39;;;;;;;8.48;4.95;;;;;;;21.31;54.02;99347.13;6073155;23;20698;-88
2023/07/21 05:49:07;;;;;;;5.88;4.53;;;;;;;21.32;54.22;99350.66;6072577;23;20036;-87
2023/07/21 05:51:35;;;;;;;8.32;4.93;;;;;;;21.33;54.05;99342.34;6070605;23;20029;-87
2023/07/21 05:54:15;;;;;;;5.55;4.45;;;;;;;21.31;54.47;99343.59;6072923;23;20398;-87
2023/07/21 05:56:42;;;;;;;7.57;4.55;;;;;;;21.32;54.32;99343.41;6096307;23;20028;-87
2023/07/21 05:59:18;;;;;;;6.43;4.40;;;;;;;21.33;54.42;99342.34;6072196;23;20025;-87
2023/07/21 06:01:45;;;;;;;10.25;4.82;;;;;;;21.36;54.37;99349.19;6070273;23;20032;-88
2023/07/21 06:04:12;;;;;;;7.22;4.53;;;;;;;21.37;54.46;99348.97;6095647;23;20017;-88
2023/07/21 06:06:43;;;;;;;7.65;4.53;;;;;;;21.37;54.21;99348.97;6094598;23;20030;-87
2023/07/21 06:09:22;;;;;;;6.40;4.18;;;;;;;21.40;54.57;99345.88;6076127;23;20024;-88
2023/07/21 06:12:06;;;;;;;8.63;4.60;;;;;;;21.39;54.75;99354.16;6052718;23;20926;-87
2023/07/21 06:15:00;;;;;;;7.28;4.63;;;;;;;21.40;54.56;99355.84;6057418;23;20029;-87
2023/07/21 06:17:40;;;;;;;10.52;5.07;;;;;;;21.38;54.58;99356.06;6097331;23;20025;-87
2023/07/21 06:20:10;;;;;;;6.35;4.35;;;;;;;21.41;54.51;99358.31;6094985;23;20446;-87
2023/07/21 06:22:37;;;;;;;13.13;4.97;;;;;;;21.42;54.64;99353.72;6095562;23;20022;-87
2023/07/21 06:25:05;;;;;;;6.90;5.07;;;;;;;21.45;54.84;99342.50;6071600;23;20450;-87
2023/07/21 06:27:32;;;;;;;6.97;4.75;;;;;;;21.45;54.79;99343.34;6094028;23;20378;-87
2023/07/21 06:29:59;;;;;;;7.18;4.43;;;;;;;21.45;54.96;99337.94;6047007;23;20029;-87
2023/07/21 06:32:33;;;;;;;11.43;4.85;;;;;;;21.49;54.90;99337.47;6049619;23;20477;-87
2023/07/21 06:35:29;;;;;;;10.50;4.53;;;;;;;21.51;54.50;99336.22;6083110;23;20453;-87
2023/07/21 06:38:03;;;;;;;7.78;5.00;;;;;;;21.54;54.54;99334.97;6093595;23;20026;-87
2023/07/21 06:40:51;;;;;;;10.65;5.00;;;;;;;21.57;54.80;99346.13;6031476;23;25750;-87
2023/07/21 06:43:46;;;;;;;6.35;4.80;;;;;;;21.59;54.70;99341.34;6057501;23;20021;-88
2023/07/21 06:46:22;;;;;;;9.93;4.78;;;;;;;21.64;54.49;99343.41;6096277;23;20100;-87
2023/07/21 06:48:53;;;;;;;8.45;5.05;;;;;;;21.64;54.32;99341.50;6097284;23;20018;-87
2023/07/21 06:51:31;;;;;;;7.68;4.95;;;;;;;21.66;54.00;99339.44;6073047;23;20024;-87
2023/07/21 06:53:58;;;;;;;7.65;5.00;;;;;;;21.70;53.63;99341.69;6094616;23;20672;-87
2023/07/21 06:56:25;;;;;;;6.38;4.28;;;;;;;21.72;53.46;99343.13;6094513;23;20084;-88
2023/07/21 06:58:52;;;;;;;6.68;4.45;;;;;;;21.75;53.42;99348.06;6095207;23;20025;-88
2023/07/21 07:01:19;;;;;;;6.03;4.38;;;;;;;21.75;53.63;99339.16;6069899;23;20032;-87
2023/07/21 07:03:47;;;;;;;10.52;4.30;;;;;;;21.73;53.63;99333.97;6071219;23;20323;-88
2023/07/21 07:06:14;;;;;;;7.03;4.55;;;;;;;21.76;53.80;99341.63;6071749;23;20018;-88
2023/07/21 07:08:41;;;;;;;9.00;4.50;;;;;;;21.81;53.70;99336.41;6094469;23;20317;-88
2023/07/21 07:11:09;;;;;;;14.23;4.65;;;;;;;21.85;53.69;99342.19;6071294;23;20024;-87
2023/07/21 07:13:35;;;;;;;8.02;4.60;;;;;;;21.88;54.01;99344.47;6070641;23;20399;-87
2023/07/21 07:16:03;;;;;;;9.77;4.75;;;;;;;21.88;53.85;99339.88;6071172;23;20045;-87
2023/07/21 07:18:30;;;;;;;5.40;4.22;;;;;;;21.91;53.81;99340.50;6094998;23;20025;-87
2023/07/21 07:20:57;;;;;;;7.47;4.55;;;;;;;21.88;53.79;99339.88;6071471;23;20037;-87
2023/07/21 07:23:24;;;;;;;6.53;4.32;;;;;;;21.91;53.72;99346.72;6094966;23;20025;-87
2023/07/21 07:25:53;;;;;;;10.32;4.13;;;;;;;21.94;53.46;99351.69;6071398;23;20445;-87
2023/07/21 07:28:20;;;;;;;5.30;4.10;;;;;;;21.93;53.25;99349.19;6119850;23;20430;-88
2023/07/21 07:30:48;;;;;;;6.05;4.15;;;;;;;21.93;52.89;99350.03;6119207;23;20025;-87
2023/07/21 07:33:15;;;;;;;6.60;4.13;;;;;;;21.93;53.00;99349.19;6069961;23;20025;-87
2023/07/21 07:35:52;;;;;;;12.38;4.10;;;;;;;21.88;53.27;99347.16;6071139;23;20080;-87
2023/07/21 07:38:23;;;;;;;6.32;3.95;;;;;;;21.93;53.10;99354.59;6093969;23;20027;-88
2023/07/21 07:40:50;;;;;;;8.57;4.88;;;;;;;21.93;52.93;99355.44;6118621;23;20395;-87
2023/07/21 07:43:17;;;;;;;17.75;4.47;;;;;;;21.93;53.16;99355.44;6070213;23;20025;-88
2023/07/21 07:45:44;;;;;;;5.68;4.15;;;;;;;21.92;52.90;99355.66;6145430;23;20045;-88
2023/07/21 07:48:11;;;;;;;11.20;4.63;;;;;;;21.95;52.97;99357.91;6095629;23;20127;-88
2023/07/21 07:50:41;;;;;;;8.07;4.78;;;;;;;21.95;52.98;99363.31;6069920;23;20121;-88
2023/07/21 07:53:09;;;;;;;9.98;4.35;;;;;;;21.99;52.92;99356.41;6046315;23;20096;-88
2023/07/21 07:55:38;;;;;;;9.63;5.22;;;;;;;22.00;52.91;99364.28;6118899;23;20021;-87
2023/07/21 07:58:05;;;;;;;10.85;4.38;;;;;;;22.01;53.08;99365.97;6094903;23;20033;-87
2023/07/21 08:00:35;;;;;;;14.73;4.85;;;;;;;22.03;52.71;99366.56;6118904;23;20092;-87
2023/07/21 08:03:05;;;;;;;15.90;5.05;;;;;;;22.03;52.66;99365.72;6095483;23;20028;-87
2023/07/21 08:05:35;;;;;;;9.60;4.32;;;;;;;22.07;52.75;99364.25;6072149;23;20037;-88
2023/07/21 08:08:03;;;;;;;8.57;4.30;;;;;;;22.08;52.53;99371.28;6048437;23;20033;-87
2023/07/21 08:10:30;;;;;;;9.32;4.80;;;;;;;22.10;52.78;99369.19;6121184;23;20056;-88
2023/07/21 08:12:58;;;;;;;6.97;3.80;;;;;;;22.13;52.52;99371.44;6096116;23;20020;-87
2023/07/21 08:15:28;;;;;;;7.65;4.70;;;;;;;22.14;52.31;99381.25;6072510;23;20021;-87
2023/07/21 08:17:55;;;;;;;9.50;5.03;;;;;;;22.12;52.24;99375.22;6072394;23;20019;-88
2023/07/21 08:20:21;;;;;;;8.55;4.55;;;;;;;22.16;52.18;99378.28;6095999;23;20025;-88
2023/07/21 08:22:50;;;;;;;4.93;4.07;;;;;;;22.16;52.14;99373.75;6072633;23;20025;-87
2023/07/21 08:25:18;;;;;;;10.90;4.45;;;;;;;22.17;51.98;99379.97;6049308;23;20428;-87
2023/07/21 08:27:45;;;;;;;9.80;4.43;;;;;;;22.15;52.38;99382.88;6095761;23;20044;-88
2023/07/21 08:30:13;;;;;;;5.32;4.15;;;;;;;22.15;51.81;99379.34;6120753;23;20458;-87
2023/07/21 08:32:40;;;;;;;8.40;4.53;;;;;;;22.16;51.95;99375.59;6048326;23;20056;-87
2023/07/21 08:35:08;;;;;;;11.70;4.45;;;;;;;22.18;52.14;99374.31;6071365;23;20056;-87
2023/07/21 08:37:36;;;;;;;7.18;4.15;;;;;;;22.17;52.08;99372.69;6047974;23;20064;-87
2023/07/21 08:40:03;;;;;;;9.45;4.50;;;;;;;22.18;52.10;99379.72;6072851;23;20013;-87
2023/07/21 08:42:30;;;;;;;9.80;3.88;;;;;;;22.21;52.14;99379.34;6120918;23;20037;-87
2023/07/21 08:44:58;;;;;;;6.75;4.50;;;;;;;22.24;52.23;99378.88;6095406;23;20017;-87
2023/07/21 08:47:25;;;;;;;10.00;4.78;;;;;;;22.29;52.36;99375.53;6095735;23;20304;-87
2023/07/21 08:49:52;;;;;;;10.02;4.43;;;;;;;22.32;52.42;99369.66;6146929;23;20045;-88
2023/07/21 08:52:18;;;;;;;8.38;4.10;;;;;;;22.37;52.42;99367.09;6095462;23;20521;-88
2023/07/21 08:54:45;;;;;;;7.90;4.30;;;;;;;22.41;52.53;99373.69;6095397;23;20738;-87
2023/07/21 08:57:13;;;;;;;10.10;3.88;;;;;;;22.45;52.29;99379.50;6095750;23;20028;-87
2023/07/21 08:59:40;;;;;;;6.45;3.60;;;;;;;22.51;52.34;99381.31;6072147;23;20469;-88
2023/07/21 09:02:07;;;;;;;9.60;4.68;;;;;;;22.57;52.25;99377.72;6095170;23;20088;-88
2023/07/21 09:04:34;;;;;;;9.68;4.15;;;;;;;22.61;52.11;99375.38;6095230;23;20472;-88
2023/07/21 09:07:03;;;;;;;6.40;4.20;;;;;;;22.66;51.90;99368.22;6072295;23;20049;-87
2023/07/21 09:09:31;;;;;;;7.20;3.92;;;;;;;22.71;51.69;99362.97;6072935;23;20049;-87
2023/07/21 09:12:03;;;;;;;7.25;4.35;;;;;;;22.76;52.02;99373.13;6095359;23;20029;-87
2023/07/21 09:14:38;;;;;;;12.57;3.83;;;;;;;22.78;51.94;99373.72;6071052;23;20101;-88
2023/07/21 09:17:07;;;;;;;4.97;3.78;;;;;;;22.87;51.72;99374.22;6118943;23;20031;-88
2023/07/21 09:19:39;;;;;;;9.75;4.38;;;;;;;22.90;52.07;99365.69;6096061;23;20021;-88
2023/07/21 09:22:06;;;;;;;9.13;3.65;;;;;;;22.96;50.40;99375.59;6071804;23;20358;-87
2023/07/21 09:24:34;;;;;;;5.25;3.72;;;;;;;23.02;50.67;99373.88;6095762;23;20021;-88
2023/07/21 09:27:13;;;;;;;6.95;3.42;;;;;;;22.99;50.65;99377.03;6072206;23;20013;-88
2023/07/21 09:29:41;;;;;;;8.23;4.13;;;;;;;23.02;49.79;99371.97;6096123;23;20025;-88
2023/07/21 09:32:16;;;;;;;5.97;3.55;;;;;;;23.00;49.62;99370.56;6095181;23;20017;-87
2023/07/21 09:35:04;;;;;;;4.40;3.42;;;;;;;22.97;47.79;99369.13;6095960;23;20048;-88
2023/07/21 09:37:32;;;;;;;7.18;3.53;;;;;;;23.02;48.46;99368.47;6120335;23;20022;-87
2023/07/21 09:40:10;;;;;;;6.47;3.13;;;;;;;23.01;48.48;99366.81;6120218;23;20025;-89
2023/07/21 09:42:38;;;;;;;6.22;2.85;;;;;;;23.01;47.74;99367.63;6120317;23;20048;-87
2023/07/21 09:45:06;;;;;;;9.95;3.45;;;;;;;23.05;47.52;99360.72;6072081;23;20025;-88
2023/07/21 09:47:33;;;;;;;5.07;3.25;;;;;;;22.99;47.86;99356.19;6071551;23;20037;-88
2023/07/21 09:50:00;;;;;;;5.85;3.30;;;;;;;23.08;48.34;99365.66;6071631;23;20020;-87
2023/07/21 09:52:27;;;;;;;7.90;3.50;;;;;;;23.21;47.59;99355.72;6095210;23;20088;-88
2023/07/21 09:55:09;;;;;;;6.93;3.60;;;;;;;23.19;46.66;99348.63;6117385;23;20473;-87
2023/07/21 09:57:47;;;;;;;7.75;4.05;;;;;;;23.23;46.20;99345.44;6095516;23;20048;-88
2023/07/21 10:00:15;;;;;;;7.35;3.40;;;;;;;23.25;46.97;99344.16;6047977;23;20076;-87
2023/07/21 10:02:45;;;;;;;6.22;3.75;;;;;;;23.22;47.21;99338.41;6095212;23;20045;-88
2023/07/21 10:05:13;;;;;;;9.02;4.60;;;;;;;23.36;46.14;99337.97;6118319;23;20017;-87
2023/07/21 10:07:48;;;;;;;5.07;3.20;;;;;;;23.24;46.35;99328.16;6119589;23;20017;-87
2023/07/21 10:10:16;;;;;;;7.40;3.47;;;;;;;23.29;46.90;99320.16;6094240;23;20588;-87
2023/07/21 10:12:52;;;;;;;7.32;5.28;;;;;;;23.32;46.75;99325.94;6069997;23;20021;-87
2023/07/21 10:15:30;;;;;;;4.75;3.20;;;;;;;23.45;45.50;99334.94;6096467;23;20080;-87
2023/07/21 10:18:09;;;;;;;10.13;3.53;;;;;;;23.45;45.94;99326.78;6118880;23;20021;-89
2023/07/21 10:20:44;;;;;;;5.88;3.35;;;;;;;23.51;45.16;99325.84;6095191;23;20021;-87
2023/07/21 10:23:14;;;;;;;9.05;3.00;;;;;;;23.49;44.96;99307.13;6069285;23;20045;-87
2023/07/21 10:25:51;;;;;;;7.60;3.42;;;;;;;23.46;44.79;99314.88;6119785;23;20474;-87
2023/07/21 10:28:30;;;;;;;4.00;2.92;;;;;;;23.48;44.98;99301.94;6095389;23;20025;-87
2023/07/21 10:31:21;;;;;;;6.82;2.90;;;;;;;23.50;44.60;99305.25;6119759;23;20017;-87
2023/07/21 10:34:02;;;;;;;5.97;3.28;;;;;;;23.57;44.69;99311.38;6092693;23;20449;-88
2023/07/21 10:36:50;;;;;;;5.75;2.88;;;;;;;23.50;42.43;99303.34;6120126;23;20025;-88
2023/07/21 10:39:26;;;;;;;6.65;2.75;;;;;;;23.62;44.07;99297.97;6094103;23;20394;-87
2023/07/21 10:41:54;;;;;;;6.10;3.38;;;;;;;23.67;44.17;99305.41;6070967;23;20022;-87
2023/07/21 10:44:22;;;;;;;3.60;2.67;;;;;;;23.73;44.15;99305.31;6095275;23;20072;-89
2023/07/21 10:46:51;;;;;;;4.28;2.88;;;;;;;23.73;43.49;99299.88;6094581;23;20454;-87
2023/07/21 10:49:19;;;;;;;4.03;2.83;;;;;;;23.73;43.21;99305.31;6095492;23;20021;-87
2023/07/21 10:51:48;;;;;;;4.57;2.78;;;;;;;23.74;42.74;99309.69;6119300;23;20074;-88
2023/07/21 10:54:14;;;;;;;6.70;2.80;;;;;;;23.74;42.68;99312.38;6070603;23;20017;-87
2023/07/21 10:56:43;;;;;;;4.25;2.88;;;;;;;23.73;42.29;99307.19;6094753;23;20043;-87
2023/07/21 10:59:10;;;;;;;3.72;2.30;;;;;;;23.73;42.87;99316.16;6071229;23;20032;-87
2023/07/21 11:01:44;;;;;;;3.08;2.40;;;;;;;23.79;42.99;99325.25;6070672;23;20779;-87
2023/07/21 11:04:13;;;;;;;5.47;2.22;;;;;;;23.75;42.75;99319.44;6070360;23;20029;-87
2023/07/21 11:06:42;;;;;;;4.88;2.88;;;;;;;23.82;42.44;99322.06;6118333;23;20022;-87
2023/07/21 11:09:12;;;;;;;3.10;2.30;;;;;;;23.79;42.71;99330.66;6071608;23;20335;-87
2023/07/21 11:11:40;;;;;;;3.45;2.20;;;;;;;23.80;42.50;99335.03;6095812;23;20394;-87
2023/07/21 11:14:14;;;;;;;5.47;2.85;;;;;;;23.80;42.85;99333.13;6070080;23;20084;-87
2023/07/21 11:16:59;;;;;;;5.07;3.20;;;;;;;23.71;42.57;99329.09;6094709;23;20041;-87
2023/07/21 11:19:31;;;;;;;5.30;3.05;;;;;;;23.77;42.16;99328.19;6094755;23;20029;-87
2023/07/21 11:21:57;;;;;;;3.10;2.53;;;;;;;23.79;41.91;99334.19;6071340;23;20101;-87
2023/07/21 11:24:28;;;;;;;4.82;2.92;;;;;;;23.73;42.14;99329.69;6070764;23;20108;-87
2023/07/21 11:26:59;;;;;;;5.45;3.08;;;;;;;23.71;42.70;99334.53;6070804;23;20017;-87
2023/07/21 11:29:29;;;;;;;3.60;3.10;;;;;;;23.79;42.54;99336.09;6118889;23;20403;-88
2023/07/21 11:31:56;;;;;;;4.30;2.90;;;;;;;23.86;42.75;99330.53;6119479;23;20025;-87
2023/07/21 11:34:25;;;;;;;4.00;2.97;;;;;;;23.86;43.07;99325.94;6071142;23;20027;-88
2023/07/21 11:36:57;;;;;;;7.80;3.00;;;;;;;23.82;42.00;99330.19;6095129;23;20390;-87
2023/07/21 11:39:30;;;;;;;4.43;3.10;;;;;;;23.85;42.36;99337.03;6121868;23;20469;-87
2023/07/21 11:41:58;;;;;;;6.63;3.00;;;;;;;23.89;42.88;99322.78;6073766;23;20025;-88
2023/07/21 11:44:27;;;;;;;5.20;2.45;;;;;;;23.97;41.14;99329.72;6096401;23;20025;-87